Time;durP1;ratioP1;P1;durP2;ratioP2;P2;SDS_P1;SDS_P2;PMS_P1;PMS_P2;Temp;Humidity;BMP_temperature;BMP_pressure;BME280_temperature;BME280_humidity;BME280_pressure;Samples;Min_cycle;Max_cycle;Signal;HPM_P1;HPM_P2
2021/10/08 00:02:19;;;;;;;27.05;16.90;;;;;;;;;;4964020;28;20481;-86
2021/10/08 00:04:45;;;;;;;23.52;16.42;;;;;;;;;;4990076;28;20069;-85
2021/10/08 00:07:10;;;;;;;24.08;16.40;;;;;;;;;;4975986;28;20030;-85
2021/10/08 00:09:36;;;;;;;25.08;16.92;;;;;;;;;;4991464;28;20030;-86
2021/10/08 00:12:02;;;;;;;23.60;16.65;;;;;;;;;;4990109;28;20022;-84
2021/10/08 00:14:28;;;;;;;22.33;15.57;;;;;;;;;;4989882;28;20025;-83
2021/10/08 00:16:54;;;;;;;23.77;16.33;;;;;;;;;;5011896;28;20485;-83
2021/10/08 00:19:20;;;;;;;22.75;15.48;;;;;;;;;;4977287;28;20040;-84
2021/10/08 00:21:46;;;;;;;25.58;15.60;;;;;;;;;;4991102;28;20503;-86
2021/10/08 00:24:11;;;;;;;25.67;14.52;;;;;;;;;;4993447;28;20034;-84
2021/10/08 00:26:40;;;;;;;28.20;15.52;;;;;;;;;;4958380;28;20026;-86
2021/10/08 00:29:07;;;;;;;22.23;14.90;;;;;;;;;;4994078;28;20030;-83
2021/10/08 00:31:32;;;;;;;22.50;15.07;;;;;;;;;;4992089;28;20616;-86
2021/10/08 00:33:58;;;;;;;22.08;13.80;;;;;;;;;;4989554;28;20030;-84
2021/10/08 00:36:23;;;;;;;19.90;14.13;;;;;;;;;;4989486;28;20124;-83
2021/10/08 00:38:48;;;;;;;20.02;14.02;;;;;;;;;;4971731;28;20036;-86
2021/10/08 00:41:14;;;;;;;18.90;13.18;;;;;;;;;;4957608;28;20058;-86
2021/10/08 00:43:40;;;;;;;25.65;13.88;;;;;;;;;;4980293;28;20040;-83
2021/10/08 00:46:05;;;;;;;24.25;13.95;;;;;;;;;;4978354;28;20127;-86
2021/10/08 00:48:31;;;;;;;20.67;14.38;;;;;;;;;;4955444;28;20034;-86
2021/10/08 00:50:56;;;;;;;20.00;14.82;;;;;;;;;;4972108;28;20054;-83
2021/10/08 00:53:22;;;;;;;20.42;14.65;;;;;;;;;;4993184;28;20018;-83
2021/10/08 00:55:52;;;;;;;17.95;13.32;;;;;;;;;;5005539;28;20026;-83
2021/10/08 00:58:21;;;;;;;19.98;14.55;;;;;;;;;;4993404;28;20105;-83
2021/10/08 01:00:48;;;;;;;21.52;13.90;;;;;;;;;;4992482;28;20038;-84
2021/10/08 01:03:14;;;;;;;17.98;13.10;;;;;;;;;;4990730;28;20048;-83
2021/10/08 01:05:41;;;;;;;19.92;12.93;;;;;;;;;;4990058;28;20038;-83
2021/10/08 01:08:07;;;;;;;21.50;13.73;;;;;;;;;;4991604;28;20034;-83
2021/10/08 01:10:33;;;;;;;18.40;13.40;;;;;;;;;;4977414;28;20042;-86
2021/10/08 01:13:00;;;;;;;17.83;13.40;;;;;;;;;;4980857;28;20029;-83
2021/10/08 01:15:26;;;;;;;19.60;13.55;;;;;;;;;;4974799;28;20038;-85
2021/10/08 01:17:52;;;;;;;17.30;13.13;;;;;;;;;;4962882;28;20030;-87
2021/10/08 01:20:19;;;;;;;18.17;12.93;;;;;;;;;;4978450;28;20042;-83
2021/10/08 01:22:44;;;;;;;18.08;12.63;;;;;;;;;;4995127;28;20041;-84
2021/10/08 01:25:10;;;;;;;18.55;13.23;;;;;;;;;;4991623;28;20030;-84
2021/10/08 01:27:36;;;;;;;16.42;12.55;;;;;;;;;;4986022;28;20030;-86
2021/10/08 01:30:02;;;;;;;16.70;12.27;;;;;;;;;;4977173;28;20532;-83
2021/10/08 01:32:30;;;;;;;17.98;13.50;;;;;;;;;;4993159;28;20048;-84
2021/10/08 01:34:56;;;;;;;16.92;11.85;;;;;;;;;;4992478;28;20036;-86
2021/10/08 01:37:22;;;;;;;16.50;12.50;;;;;;;;;;4991515;28;20030;-84
2021/10/08 01:39:48;;;;;;;17.73;12.55;;;;;;;;;;5005385;28;20045;-87
2021/10/08 01:42:14;;;;;;;17.92;12.45;;;;;;;;;;4993683;28;20074;-83
2021/10/08 01:44:40;;;;;;;18.35;12.45;;;;;;;;;;4992177;28;20041;-87
2021/10/08 01:47:06;;;;;;;16.63;11.57;;;;;;;;;;4975507;28;20083;-86
2021/10/08 01:49:32;;;;;;;17.77;12.85;;;;;;;;;;4990200;28;20081;-86
2021/10/08 01:51:59;;;;;;;18.63;12.00;;;;;;;;;;4971459;28;20061;-84
2021/10/08 01:54:24;;;;;;;23.80;12.35;;;;;;;;;;4978805;28;20507;-83
2021/10/08 01:56:50;;;;;;;15.85;11.43;;;;;;;;;;4976251;28;20030;-83
2021/10/08 01:59:15;;;;;;;16.27;12.00;;;;;;;;;;4994393;28;20034;-83
2021/10/08 02:01:41;;;;;;;16.42;12.02;;;;;;;;;;4978051;28;20041;-86
2021/10/08 02:04:07;;;;;;;22.02;11.07;;;;;;;;;;4985223;28;20029;-84
2021/10/08 02:06:33;;;;;;;14.93;11.30;;;;;;;;;;4987298;28;21005;-85
2021/10/08 02:09:00;;;;;;;13.68;10.38;;;;;;;;;;4992831;28;20072;-86
2021/10/08 02:11:25;;;;;;;17.13;12.40;;;;;;;;;;4989374;28;20057;-84
2021/10/08 02:13:51;;;;;;;15.00;11.30;;;;;;;;;;4995103;28;20511;-87
2021/10/08 02:16:19;;;;;;;13.90;10.63;;;;;;;;;;4991301;28;20044;-86
2021/10/08 02:18:45;;;;;;;12.85;10.18;;;;;;;;;;4992091;28;20061;-83
2021/10/08 02:21:11;;;;;;;17.15;10.73;;;;;;;;;;4976042;28;20025;-86
2021/10/08 02:23:36;;;;;;;26.08;11.27;;;;;;;;;;4992610;28;20045;-83
2021/10/08 02:26:01;;;;;;;16.85;11.02;;;;;;;;;;4975956;28;20029;-83
2021/10/08 02:28:27;;;;;;;14.63;10.05;;;;;;;;;;4979589;28;20057;-83
2021/10/08 02:30:52;;;;;;;14.40;10.50;;;;;;;;;;4990395;28;20030;-84
2021/10/08 02:33:18;;;;;;;13.77;10.27;;;;;;;;;;4989308;28;20041;-86
2021/10/08 02:35:43;;;;;;;14.60;10.07;;;;;;;;;;4973366;28;20053;-83
2021/10/08 02:38:09;;;;;;;15.52;10.00;;;;;;;;;;4971303;28;20040;-85
2021/10/08 02:40:34;;;;;;;14.05;10.68;;;;;;;;;;4977472;28;20037;-83
2021/10/08 02:43:01;;;;;;;15.10;10.68;;;;;;;;;;4964321;28;20026;-83
2021/10/08 02:45:26;;;;;;;14.38;10.25;;;;;;;;;;4975996;28;20034;-86
2021/10/08 02:47:52;;;;;;;17.00;10.27;;;;;;;;;;4961446;28;20156;-86
2021/10/08 02:50:18;;;;;;;16.05;11.00;;;;;;;;;;4973784;28;20054;-86
2021/10/08 02:52:43;;;;;;;16.85;10.98;;;;;;;;;;4960685;28;20562;-84
2021/10/08 02:55:09;;;;;;;14.85;10.50;;;;;;;;;;4979700;28;20065;-83
2021/10/08 02:57:39;;;;;;;20.30;11.40;;;;;;;;;;4994918;28;20030;-83
2021/10/08 03:00:09;;;;;;;18.67;11.60;;;;;;;;;;4977339;28;20117;-83
2021/10/08 03:02:34;;;;;;;14.90;10.52;;;;;;;;;;4976120;28;20034;-83
2021/10/08 03:05:00;;;;;;;16.33;11.15;;;;;;;;;;4976878;28;20042;-84
2021/10/08 03:07:26;;;;;;;21.13;11.10;;;;;;;;;;4967421;28;20038;-83
2021/10/08 03:09:52;;;;;;;19.35;11.68;;;;;;;;;;4990980;28;20044;-84
2021/10/08 03:12:18;;;;;;;21.40;11.05;;;;;;;;;;4984114;28;20029;-83
2021/10/08 03:14:43;;;;;;;16.45;11.23;;;;;;;;;;4990104;28;20749;-84
2021/10/08 03:17:09;;;;;;;17.48;11.48;;;;;;;;;;4962815;28;20046;-84
2021/10/08 03:19:34;;;;;;;24.35;11.73;;;;;;;;;;4996054;28;20552;-86
2021/10/08 03:22:00;;;;;;;19.55;11.45;;;;;;;;;;4959960;28;20038;-87
2021/10/08 03:24:25;;;;;;;18.48;11.23;;;;;;;;;;4963846;28;20053;-84
2021/10/08 03:26:51;;;;;;;18.75;11.18;;;;;;;;;;4979689;28;20096;-84
2021/10/08 03:29:16;;;;;;;17.40;11.18;;;;;;;;;;4961142;28;20066;-83
2021/10/08 03:31:42;;;;;;;15.57;11.57;;;;;;;;;;4994031;28;20040;-84
2021/10/08 03:34:07;;;;;;;17.55;11.95;;;;;;;;;;5016701;28;20052;-83
2021/10/08 03:36:53;;;;;;;21.08;11.23;;;;;;;;;;4959881;28;20041;-86
2021/10/08 03:39:22;;;;;;;16.20;12.07;;;;;;;;;;4991898;28;20030;-84
2021/10/08 03:41:49;;;;;;;16.73;11.55;;;;;;;;;;4993414;28;20405;-85
2021/10/08 03:44:15;;;;;;;17.73;11.77;;;;;;;;;;4995319;28;20037;-83
2021/10/08 03:46:51;;;;;;;17.02;11.85;;;;;;;;;;4977407;28;20038;-83
2021/10/08 03:49:18;;;;;;;16.00;11.95;;;;;;;;;;4988673;28;20038;-84
2021/10/08 03:51:47;;;;;;;16.55;11.60;;;;;;;;;;5010041;28;20073;-86
2021/10/08 03:54:16;;;;;;;17.17;11.77;;;;;;;;;;4990089;28;20029;-84
2021/10/08 03:56:43;;;;;;;16.65;11.70;;;;;;;;;;5014236;28;20037;-83
2021/10/08 03:59:08;;;;;;;21.40;12.57;;;;;;;;;;4997625;28;20038;-84
2021/10/08 04:01:35;;;;;;;16.40;12.40;;;;;;;;;;5011426;28;20088;-83
2021/10/08 04:04:06;;;;;;;14.77;11.32;;;;;;;;;;5007416;28;20045;-86
2021/10/08 04:06:33;;;;;;;15.48;10.93;;;;;;;;;;4992301;28;20064;-85
2021/10/08 04:09:08;;;;;;;14.77;11.18;;;;;;;;;;4993102;28;20022;-86
2021/10/08 04:11:34;;;;;;;16.77;11.35;;;;;;;;;;5010451;28;20037;-86
2021/10/08 04:14:00;;;;;;;14.98;10.80;;;;;;;;;;5012944;28;20026;-86
2021/10/08 04:16:25;;;;;;;14.50;10.43;;;;;;;;;;4975094;28;20113;-83
2021/10/08 04:18:51;;;;;;;18.15;11.48;;;;;;;;;;4979373;28;20025;-86
2021/10/08 04:21:17;;;;;;;14.45;11.25;;;;;;;;;;4990915;28;20042;-83
2021/10/08 04:23:43;;;;;;;17.73;10.55;;;;;;;;;;4996417;28;20527;-83
2021/10/08 04:26:09;;;;;;;15.35;10.30;;;;;;;;;;4994727;28;20029;-83
2021/10/08 04:28:35;;;;;;;16.65;11.10;;;;;;;;;;4994949;28;20373;-84
2021/10/08 04:31:01;;;;;;;23.70;10.85;;;;;;;;;;4961943;28;20061;-86
2021/10/08 04:33:27;;;;;;;28.15;10.70;;;;;;;;;;4976122;28;20033;-83
2021/10/08 04:35:59;;;;;;;18.27;10.48;;;;;;;;;;4975907;28;20034;-84
2021/10/08 04:38:26;;;;;;;17.77;11.00;;;;;;;;;;4986782;28;20064;-84
2021/10/08 04:40:52;;;;;;;31.70;11.73;;;;;;;;;;5009600;28;21598;-83
2021/10/08 04:43:18;;;;;;;14.65;10.82;;;;;;;;;;4990020;28;20021;-86
2021/10/08 04:45:43;;;;;;;14.90;10.63;;;;;;;;;;4997208;28;20527;-86
2021/10/08 04:48:09;;;;;;;23.25;11.00;;;;;;;;;;4978314;28;20029;-86
2021/10/08 04:50:35;;;;;;;16.30;10.23;;;;;;;;;;4975353;28;20065;-83
2021/10/08 04:53:11;;;;;;;22.73;10.88;;;;;;;;;;5016466;28;20057;-83
2021/10/08 04:55:36;;;;;;;28.63;10.52;;;;;;;;;;4993393;28;20034;-86
2021/10/08 04:58:02;;;;;;;16.02;11.18;;;;;;;;;;4991460;28;20126;-85
2021/10/08 05:00:27;;;;;;;14.95;10.80;;;;;;;;;;4974265;28;20034;-85
2021/10/08 05:02:53;;;;;;;13.60;10.15;;;;;;;;;;4974254;28;20068;-84
2021/10/08 05:05:18;;;;;;;22.48;10.50;;;;;;;;;;4971030;28;20048;-85
2021/10/08 05:07:43;;;;;;;18.02;10.13;;;;;;;;;;4961407;28;20088;-84
2021/10/08 05:10:09;;;;;;;22.13;11.35;;;;;;;;;;4970935;28;20034;-84
2021/10/08 05:12:34;;;;;;;15.93;10.73;;;;;;;;;;4975438;28;20029;-83
2021/10/08 05:15:00;;;;;;;20.60;11.05;;;;;;;;;;4963449;28;20026;-84
2021/10/08 05:17:25;;;;;;;17.20;10.45;;;;;;;;;;4992330;28;20146;-84
2021/10/08 05:19:51;;;;;;;15.43;10.88;;;;;;;;;;4959201;28;20030;-84
2021/10/08 05:22:16;;;;;;;15.32;10.88;;;;;;;;;;4975057;28;20447;-84
2021/10/08 05:24:42;;;;;;;16.55;10.55;;;;;;;;;;4975810;28;20034;-83
2021/10/08 05:27:07;;;;;;;15.65;10.90;;;;;;;;;;4974993;28;20404;-84
2021/10/08 05:29:33;;;;;;;16.23;10.95;;;;;;;;;;4976900;28;20076;-84
2021/10/08 05:31:58;;;;;;;15.40;11.13;;;;;;;;;;4991416;28;20040;-84
2021/10/08 05:34:23;;;;;;;14.80;10.63;;;;;;;;;;4981043;28;20505;-83
2021/10/08 05:36:55;;;;;;;14.57;10.75;;;;;;;;;;4974140;28;20038;-85
2021/10/08 05:39:21;;;;;;;14.38;10.50;;;;;;;;;;4991243;28;20049;-84
2021/10/08 05:41:47;;;;;;;12.95;10.00;;;;;;;;;;4992364;28;20030;-85
2021/10/08 05:44:12;;;;;;;18.20;9.45;;;;;;;;;;4965958;28;20033;-83
2021/10/08 05:46:38;;;;;;;14.38;9.52;;;;;;;;;;4979756;28;20033;-83
2021/10/08 05:49:03;;;;;;;15.68;9.90;;;;;;;;;;5012235;28;20119;-83
2021/10/08 05:51:30;;;;;;;18.77;10.32;;;;;;;;;;4961092;28;20421;-86
2021/10/08 05:54:10;;;;;;;28.23;8.80;;;;;;;;;;4992618;28;20037;-84
2021/10/08 05:56:35;;;;;;;25.90;10.77;;;;;;;;;;5013084;28;20077;-83
2021/10/08 05:59:01;;;;;;;19.38;10.80;;;;;;;;;;4976292;28;20049;-84
2021/10/08 06:01:26;;;;;;;15.32;10.10;;;;;;;;;;4978448;28;20026;-86
2021/10/08 06:03:52;;;;;;;17.13;10.32;;;;;;;;;;4960695;28;20481;-84
2021/10/08 06:06:17;;;;;;;14.05;9.82;;;;;;;;;;4975674;28;20026;-83
2021/10/08 06:08:43;;;;;;;26.75;10.48;;;;;;;;;;4959861;28;20114;-85
2021/10/08 06:11:09;;;;;;;24.08;8.57;;;;;;;;;;4960549;28;20040;-84
2021/10/08 06:13:35;;;;;;;22.25;10.57;;;;;;;;;;4977705;28;20026;-86
2021/10/08 06:16:02;;;;;;;19.48;11.07;;;;;;;;;;4980963;28;20034;-84
2021/10/08 06:18:27;;;;;;;23.40;10.52;;;;;;;;;;4975483;28;20045;-84
2021/10/08 06:20:53;;;;;;;19.55;10.73;;;;;;;;;;4979828;28;20037;-86
2021/10/08 06:23:18;;;;;;;19.42;10.48;;;;;;;;;;5009847;28;20054;-84
2021/10/08 06:25:44;;;;;;;18.90;10.77;;;;;;;;;;4992986;28;20033;-83
2021/10/08 06:28:09;;;;;;;15.75;10.25;;;;;;;;;;4965494;28;20049;-83
2021/10/08 06:30:35;;;;;;;16.23;10.35;;;;;;;;;;4979436;28;20038;-83
2021/10/08 06:33:00;;;;;;;15.13;10.60;;;;;;;;;;4986465;28;20029;-86
2021/10/08 06:35:26;;;;;;;14.70;10.10;;;;;;;;;;4981544;28;20733;-85
2021/10/08 06:37:53;;;;;;;18.48;10.60;;;;;;;;;;4983678;28;20030;-84
2021/10/08 06:40:19;;;;;;;15.30;10.40;;;;;;;;;;4983629;28;20057;-84
2021/10/08 06:42:44;;;;;;;13.98;9.88;;;;;;;;;;4997358;28;20034;-84
2021/10/08 06:45:10;;;;;;;13.32;9.63;;;;;;;;;;4978862;28;20038;-83
2021/10/08 06:47:35;;;;;;;14.68;9.48;;;;;;;;;;4999106;28;20403;-83
2021/10/08 06:50:01;;;;;;;13.55;9.18;;;;;;;;;;4994518;28;20458;-85
2021/10/08 06:52:27;;;;;;;14.10;10.02;;;;;;;;;;4967861;28;20089;-85
2021/10/08 06:54:52;;;;;;;14.07;9.82;;;;;;;;;;5012712;28;20232;-83
2021/10/08 06:57:18;;;;;;;14.32;9.80;;;;;;;;;;4979021;28;20042;-85
2021/10/08 06:59:43;;;;;;;20.65;10.38;;;;;;;;;;4982804;28;20072;-83
2021/10/08 07:02:09;;;;;;;17.33;10.15;;;;;;;;;;4994120;28;20026;-84
2021/10/08 07:04:34;;;;;;;26.00;10.15;;;;;;;;;;4986271;28;20037;-83
2021/10/08 07:07:00;;;;;;;15.60;10.50;;;;;;;;;;4979671;28;20033;-86
2021/10/08 07:09:25;;;;;;;16.65;9.85;;;;;;;;;;4980819;28;20045;-84
2021/10/08 07:11:50;;;;;;;17.50;11.18;;;;;;;;;;4982576;28;20033;-87
2021/10/08 07:14:16;;;;;;;15.98;11.02;;;;;;;;;;4996198;28;20026;-84
2021/10/08 07:16:42;;;;;;;18.20;11.80;;;;;;;;;;4985713;28;20030;-83
2021/10/08 07:19:16;;;;;;;17.15;11.50;;;;;;;;;;4985285;28;20404;-86
2021/10/08 07:21:42;;;;;;;16.15;10.90;;;;;;;;;;5002977;28;20452;-84
2021/10/08 07:24:11;;;;;;;15.10;10.90;;;;;;;;;;4984101;28;20031;-83
2021/10/08 07:26:38;;;;;;;15.85;11.18;;;;;;;;;;4983181;28;20033;-86
2021/10/08 07:29:04;;;;;;;16.30;11.25;;;;;;;;;;4999592;28;20030;-84
2021/10/08 07:31:30;;;;;;;16.25;11.63;;;;;;;;;;4985944;28;20026;-84
2021/10/08 07:33:55;;;;;;;17.15;11.98;;;;;;;;;;5001290;28;20585;-84
2021/10/08 07:36:21;;;;;;;18.25;12.43;;;;;;;;;;4999532;28;20026;-84
2021/10/08 07:38:58;;;;;;;19.75;12.18;;;;;;;;;;4984848;28;20041;-86
2021/10/08 07:41:24;;;;;;;23.63;13.13;;;;;;;;;;4992440;28;20087;-87
2021/10/08 07:43:50;;;;;;;23.60;13.02;;;;;;;;;;4997808;28;20485;-86
2021/10/08 07:46:16;;;;;;;29.85;12.90;;;;;;;;;;4994381;28;20117;-84
2021/10/08 07:48:41;;;;;;;20.85;13.27;;;;;;;;;;5005067;28;20129;-83
2021/10/08 07:51:20;;;;;;;18.75;12.85;;;;;;;;;;4976770;28;20045;-86
2021/10/08 07:53:45;;;;;;;41.45;14.02;;;;;;;;;;4972161;28;20496;-83
2021/10/08 07:56:11;;;;;;;24.13;12.88;;;;;;;;;;4983625;28;20061;-84
2021/10/08 07:59:01;;;;;;;19.77;12.60;;;;;;;;;;4980018;28;20401;-83
2021/10/08 08:01:29;;;;;;;20.40;12.73;;;;;;;;;;4975895;28;20059;-83
2021/10/08 08:04:01;;;;;;;16.58;11.75;;;;;;;;;;4982793;28;20037;-84
2021/10/08 08:06:31;;;;;;;19.23;13.13;;;;;;;;;;4983880;28;20025;-86
2021/10/08 08:09:02;;;;;;;19.65;13.00;;;;;;;;;;4983838;28;20057;-84
2021/10/08 08:11:30;;;;;;;17.40;12.02;;;;;;;;;;4966687;28;20108;-86
2021/10/08 08:14:03;;;;;;;19.77;12.93;;;;;;;;;;4984380;28;20979;-83
2021/10/08 08:16:32;;;;;;;20.23;13.07;;;;;;;;;;5001325;28;20395;-86
2021/10/08 08:19:10;;;;;;;19.60;13.10;;;;;;;;;;4976968;28;20041;-83
2021/10/08 08:21:36;;;;;;;20.92;12.48;;;;;;;;;;4966307;28;20060;-84
2021/10/08 08:24:02;;;;;;;20.25;12.40;;;;;;;;;;5013825;28;20465;-84
2021/10/08 08:26:27;;;;;;;23.58;13.15;;;;;;;;;;5000621;28;20033;-83
2021/10/08 08:28:53;;;;;;;19.25;12.52;;;;;;;;;;4976550;28;20378;-83
2021/10/08 08:31:18;;;;;;;21.23;12.75;;;;;;;;;;4990703;28;20041;-83
2021/10/08 08:33:44;;;;;;;19.63;13.27;;;;;;;;;;4998310;28;20038;-84
2021/10/08 08:36:09;;;;;;;18.45;12.55;;;;;;;;;;4984817;28;20120;-84
2021/10/08 08:38:35;;;;;;;18.70;12.63;;;;;;;;;;4981682;28;20484;-84
2021/10/08 08:41:01;;;;;;;23.42;13.52;;;;;;;;;;4965965;28;20154;-85
2021/10/08 08:43:29;;;;;;;20.05;12.85;;;;;;;;;;4997500;28;20076;-85
2021/10/08 08:45:58;;;;;;;39.55;14.10;;;;;;;;;;4997354;28;20030;-86
2021/10/08 08:48:24;;;;;;;20.60;13.43;;;;;;;;;;4978869;28;20026;-83
2021/10/08 08:50:52;;;;;;;22.08;14.25;;;;;;;;;;4967389;28;20058;-84
2021/10/08 08:53:21;;;;;;;21.42;13.65;;;;;;;;;;4984611;28;20485;-83
2021/10/08 08:55:47;;;;;;;24.35;13.48;;;;;;;;;;4979231;28;20026;-84
2021/10/08 08:58:13;;;;;;;22.88;14.05;;;;;;;;;;4996968;28;20033;-85
2021/10/08 09:00:39;;;;;;;20.77;13.68;;;;;;;;;;4983459;28;20083;-83
2021/10/08 09:03:10;;;;;;;19.55;12.77;;;;;;;;;;4985811;28;20034;-83
2021/10/08 09:05:37;;;;;;;24.83;15.38;;;;;;;;;;4998763;28;20032;-83
2021/10/08 09:08:04;;;;;;;24.90;14.25;;;;;;;;;;5012513;28;20105;-83
2021/10/08 09:10:35;;;;;;;24.45;14.52;;;;;;;;;;4977932;28;20065;-83
2021/10/08 09:13:01;;;;;;;21.48;13.18;;;;;;;;;;4995011;28;20109;-86
2021/10/08 09:15:28;;;;;;;22.05;13.75;;;;;;;;;;4976299;28;20060;-83
2021/10/08 09:18:12;;;;;;;22.48;14.07;;;;;;;;;;4979570;28;20041;-83
2021/10/08 09:20:39;;;;;;;23.33;14.98;;;;;;;;;;4984617;28;20400;-85
2021/10/08 09:23:06;;;;;;;21.58;13.55;;;;;;;;;;4976709;28;20451;-83
2021/10/08 09:25:37;;;;;;;27.38;14.88;;;;;;;;;;4968930;28;20485;-83
2021/10/08 09:28:10;;;;;;;26.27;15.82;;;;;;;;;;5010071;28;20401;-83
2021/10/08 09:30:45;;;;;;;27.85;16.80;;;;;;;;;;4990575;28;20058;-83
2021/10/08 09:33:13;;;;;;;32.38;18.77;;;;;;;;;;4997540;28;20018;-84
2021/10/08 09:35:40;;;;;;;28.98;17.92;;;;;;;;;;4997951;28;20178;-84
2021/10/08 09:38:10;;;;;;;29.00;17.40;;;;;;;;;;4977650;28;20169;-85
2021/10/08 09:40:43;;;;;;;33.10;18.60;;;;;;;;;;5015467;28;20029;-83
2021/10/08 09:43:13;;;;;;;;;;;;;;;;;;5015476;28;20480;-85
2021/10/08 09:45:42;;;;;;;31.33;18.08;;;;;;;;;;4999409;28;19953;-83
2021/10/08 09:48:09;;;;;;;30.55;18.50;;;;;;;;;;4998062;28;20061;-82
2021/10/08 09:50:35;;;;;;;31.38;19.77;;;;;;;;;;4957954;28;20114;-83
2021/10/08 09:53:20;;;;;;;32.72;18.40;;;;;;;;;;4977179;28;20582;-84
2021/10/08 09:55:46;;;;;;;28.40;17.75;;;;;;;;;;4989977;28;20497;-84
2021/10/08 09:58:11;;;;;;;30.02;18.95;;;;;;;;;;4962466;28;20026;-83
2021/10/08 10:00:50;;;;;;;35.15;19.00;;;;;;;;;;4971931;28;20058;-83
2021/10/08 10:03:18;;;;;;;35.92;19.63;;;;;;;;;;4981075;28;20037;-86
2021/10/08 10:05:44;;;;;;;34.22;21.42;;;;;;;;;;4996059;28;20096;-83
2021/10/08 10:08:11;;;;;;;33.38;19.80;;;;;;;;;;4982204;28;20030;-83
2021/10/08 10:10:38;;;;;;;32.00;19.48;;;;;;;;;;4967892;28;20037;-83
2021/10/08 10:13:05;;;;;;;38.70;20.88;;;;;;;;;;4982656;28;20033;-85
2021/10/08 10:15:34;;;;;;;37.72;20.58;;;;;;;;;;5017124;28;20014;-83
2021/10/08 10:18:03;;;;;;;34.83;20.42;;;;;;;;;;4996475;28;20118;-82
2021/10/08 10:20:32;;;;;;;31.88;20.02;;;;;;;;;;4979936;28;20056;-83
2021/10/08 10:22:58;;;;;;;33.13;19.60;;;;;;;;;;4997899;28;20645;-83
2021/10/08 10:25:26;;;;;;;33.38;20.30;;;;;;;;;;4996635;28;20030;-85
2021/10/08 10:27:52;;;;;;;31.17;20.00;;;;;;;;;;4979372;28;20038;-85
2021/10/08 10:30:19;;;;;;;36.03;21.15;;;;;;;;;;4952407;28;20080;-83
2021/10/08 10:32:47;;;;;;;33.60;19.17;;;;;;;;;;4999329;28;20026;-83
2021/10/08 10:35:50;;;;;;;27.02;17.27;;;;;;;;;;5012938;28;20029;-83
2021/10/08 10:38:28;;;;;;;27.58;17.80;;;;;;;;;;4971377;28;20042;-85
2021/10/08 10:41:08;;;;;;;30.95;18.05;;;;;;;;;;4991656;28;20048;-83
2021/10/08 10:43:49;;;;;;;29.63;18.58;;;;;;;;;;4997445;28;20077;-83
2021/10/08 10:52:01;;;;;;;27.33;18.10;;;;;;;;;;5007259;28;20125;-83
2021/10/08 10:54:39;;;;;;;31.02;18.38;;;;;;;;;;5017155;28;20444;-84
2021/10/08 10:57:06;;;;;;;29.40;18.35;;;;;;;;;;4999609;28;20045;-84
2021/10/08 10:59:33;;;;;;;28.00;17.65;;;;;;;;;;4989755;28;20026;-85
2021/10/08 11:02:09;;;;;;;29.67;17.88;;;;;;;;;;4974607;28;20504;-84
2021/10/08 11:04:39;;;;;;;30.48;18.08;;;;;;;;;;4993195;28;20034;-85
2021/10/08 11:07:12;;;;;;;27.70;18.30;;;;;;;;;;4997216;28;20117;-84
2021/10/08 11:09:39;;;;;;;26.67;18.33;;;;;;;;;;4988206;28;20033;-85
2021/10/08 11:12:27;;;;;;;27.55;18.58;;;;;;;;;;4992896;28;20048;-83
2021/10/08 11:15:19;;;;;;;29.75;17.30;;;;;;;;;;4989791;28;20112;-83
2021/10/08 11:17:54;;;;;;;28.73;18.42;;;;;;;;;;4996329;28;20050;-83
2021/10/08 11:20:28;;;;;;;27.17;17.58;;;;;;;;;;5019275;28;20103;-85
2021/10/08 11:22:56;;;;;;;27.65;17.80;;;;;;;;;;5001204;28;20026;-85
2021/10/08 11:25:21;;;;;;;30.58;18.17;;;;;;;;;;5000595;28;20026;-84
2021/10/08 11:27:48;;;;;;;29.45;17.10;;;;;;;;;;4983840;28;20042;-83
2021/10/08 11:30:14;;;;;;;25.27;16.67;;;;;;;;;;4985502;28;20117;-83
2021/10/08 11:32:51;;;;;;;27.65;17.73;;;;;;;;;;4985623;28;20054;-85
2021/10/08 11:35:19;;;;;;;29.40;19.02;;;;;;;;;;5000804;28;20025;-83
2021/10/08 11:37:46;;;;;;;31.25;19.38;;;;;;;;;;5003721;28;20060;-83
2021/10/08 11:40:15;;;;;;;32.75;19.02;;;;;;;;;;5001271;28;20030;-86
2021/10/08 11:42:55;;;;;;;30.92;19.27;;;;;;;;;;5002629;28;20053;-83
2021/10/08 11:45:34;;;;;;;28.45;17.50;;;;;;;;;;4980782;28;20041;-85
2021/10/08 11:48:09;;;;;;;26.35;17.42;;;;;;;;;;4993092;28;20036;-84
2021/10/08 11:53:03;;;;;;;27.98;16.83;;;;;;;;;;4992959;28;20056;-83
2021/10/08 11:55:38;;;;;;;28.40;17.25;;;;;;;;;;4983680;28;20023;-84
2021/10/08 11:58:07;;;;;;;28.20;16.73;;;;;;;;;;4983495;28;20038;-84
2021/10/08 12:00:47;;;;;;;25.58;16.17;;;;;;;;;;4978633;28;20030;-85
2021/10/08 12:03:14;;;;;;;27.60;16.48;;;;;;;;;;4997465;28;20065;-83
2021/10/08 12:05:46;;;;;;;25.45;15.88;;;;;;;;;;5015808;28;20033;-83
2021/10/08 12:08:15;;;;;;;24.95;15.15;;;;;;;;;;5014777;28;20033;-83
2021/10/08 12:11:01;;;;;;;25.02;15.73;;;;;;;;;;4986825;28;20034;-84
2021/10/08 12:13:51;;;;;;;23.17;13.90;;;;;;;;;;5016500;28;20030;-83
2021/10/08 12:16:26;;;;;;;24.08;14.88;;;;;;;;;;4999804;28;20485;-83
2021/10/08 12:18:54;;;;;;;20.98;13.63;;;;;;;;;;4998801;28;20022;-85
2021/10/08 12:21:22;;;;;;;22.90;14.27;;;;;;;;;;4992872;28;20034;-84
2021/10/08 12:23:55;;;;;;;20.75;12.82;;;;;;;;;;5013676;28;20397;-83
2021/10/08 12:26:21;;;;;;;15.60;10.45;;;;;;;;;;5014631;28;20508;-83
2021/10/08 12:28:51;;;;;;;18.92;10.15;;;;;;;;;;4963961;28;20120;-83
2021/10/08 12:31:18;;;;;;;16.42;10.18;;;;;;;;;;4983265;28;20374;-84
2021/10/08 12:33:45;;;;;;;15.55;10.02;;;;;;;;;;4987410;28;20037;-84
2021/10/08 12:36:29;;;;;;;16.35;10.63;;;;;;;;;;5001080;28;20038;-84
2021/10/08 12:38:58;;;;;;;;;;;;;;;;;;4999874;28;20045;-84
2021/10/08 12:41:37;;;;;;;17.23;9.48;;;;;;;;;;4997839;28;20002;-84
2021/10/08 12:44:11;;;;;;;12.55;8.25;;;;;;;;;;5010750;28;20031;-84
2021/10/08 12:46:41;;;;;;;14.00;8.32;;;;;;;;;;4989574;28;20025;-83
2021/10/08 12:49:08;;;;;;;14.98;8.38;;;;;;;;;;4999506;28;20017;-84
2021/10/08 12:51:48;;;;;;;12.55;8.32;;;;;;;;;;5001963;28;20060;-84
2021/10/08 12:54:16;;;;;;;11.52;7.30;;;;;;;;;;4995784;28;20028;-85
2021/10/08 12:56:42;;;;;;;11.38;6.95;;;;;;;;;;4971674;28;20120;-84
2021/10/08 12:59:08;;;;;;;11.73;7.15;;;;;;;;;;5010290;28;20037;-84
2021/10/08 13:01:34;;;;;;;13.85;7.28;;;;;;;;;;4999130;28;20030;-83
2021/10/08 13:04:16;;;;;;;11.63;6.63;;;;;;;;;;4981375;28;20088;-84
2021/10/08 13:06:42;;;;;;;10.88;6.30;;;;;;;;;;5016052;28;20045;-85
2021/10/08 13:09:13;;;;;;;8.88;5.35;;;;;;;;;;4965818;28;20031;-83
2021/10/08 13:11:42;;;;;;;9.95;5.30;;;;;;;;;;4995659;28;20034;-83
2021/10/08 13:14:18;;;;;;;8.73;5.40;;;;;;;;;;5015817;28;20028;-83
2021/10/08 13:16:44;;;;;;;9.25;5.38;;;;;;;;;;4997383;28;20400;-85
2021/10/08 13:19:43;;;;;;;8.75;5.03;;;;;;;;;;5013843;28;20029;-82
2021/10/08 13:22:09;;;;;;;8.75;5.93;;;;;;;;;;4988452;28;20034;-84
2021/10/08 13:24:34;;;;;;;6.68;4.15;;;;;;;;;;4956927;28;20100;-83
2021/10/08 13:27:00;;;;;;;11.02;4.50;;;;;;;;;;4975100;28;20038;-84
2021/10/08 13:29:26;;;;;;;8.93;5.20;;;;;;;;;;4975353;28;20497;-83
2021/10/08 13:31:52;;;;;;;7.85;5.25;;;;;;;;;;5008224;28;20052;-84
2021/10/08 13:34:19;;;;;;;10.00;5.60;;;;;;;;;;4992184;28;20029;-84
2021/10/08 13:36:52;;;;;;;8.52;5.18;;;;;;;;;;4989672;28;20045;-84
2021/10/08 13:39:25;;;;;;;;;;;;;;;;;;4988642;28;20046;-86
2021/10/08 13:41:53;;;;;;;10.05;5.85;;;;;;;;;;5001434;28;20369;-84
2021/10/08 13:44:29;;;;;;;8.68;5.43;;;;;;;;;;4972020;28;20685;-83
2021/10/08 13:46:54;;;;;;;8.95;5.18;;;;;;;;;;4989176;28;20045;-85
2021/10/08 13:49:26;;;;;;;10.27;5.88;;;;;;;;;;4974090;28;20029;-83
2021/10/08 13:51:55;;;;;;;10.20;6.32;;;;;;;;;;4967663;28;20057;-84
2021/10/08 13:54:26;;;;;;;8.93;5.50;;;;;;;;;;4973719;28;20029;-83
2021/10/08 13:57:20;;;;;;;9.13;5.28;;;;;;;;;;4989076;28;20440;-82
2021/10/08 13:59:55;;;;;;;8.77;5.10;;;;;;;;;;4996141;28;20037;-84
2021/10/08 14:02:33;;;;;;;15.65;6.63;;;;;;;;;;4989016;28;20057;-84
2021/10/08 14:10:16;;;;;;;8.32;5.30;;;;;;;;;;4987698;28;20036;-86
2021/10/08 14:12:42;;;;;;;9.50;5.35;;;;;;;;;;4977423;28;20034;-83
2021/10/08 14:15:08;;;;;;;11.05;6.22;;;;;;;;;;4980639;28;20106;-84
2021/10/08 14:17:33;;;;;;;8.70;5.38;;;;;;;;;;4989610;28;20058;-83
2021/10/08 14:20:01;;;;;;;9.30;5.13;;;;;;;;;;4965295;28;20041;-83
2021/10/08 14:22:27;;;;;;;8.75;5.15;;;;;;;;;;4998847;28;20432;-85
2021/10/08 14:24:55;;;;;;;8.23;5.28;;;;;;;;;;4964245;28;20065;-84
2021/10/08 14:27:21;;;;;;;8.27;5.22;;;;;;;;;;4962318;28;20088;-83
2021/10/08 14:29:46;;;;;;;8.30;5.07;;;;;;;;;;4981667;28;20432;-83
2021/10/08 14:32:11;;;;;;;9.68;5.22;;;;;;;;;;4977481;28;20034;-84
2021/10/08 14:34:37;;;;;;;9.13;5.63;;;;;;;;;;4977399;28;20076;-84
2021/10/08 14:37:02;;;;;;;11.60;6.45;;;;;;;;;;4992707;28;20112;-84
2021/10/08 14:39:28;;;;;;;11.88;6.80;;;;;;;;;;4998654;28;20124;-83
2021/10/08 14:41:54;;;;;;;11.48;7.50;;;;;;;;;;4983246;28;20513;-83